createdAt,value
2022-12-04T00:01:09.845Z,9.32
2022-12-04T00:03:36.866Z,9.20
2022-12-04T00:06:08.924Z,9.10
2022-12-04T00:08:35.891Z,9.07
2022-12-04T00:11:04.558Z,10.15
2022-12-04T00:13:31.955Z,9.73
2022-12-04T00:15:59.467Z,9.30
2022-12-04T00:18:26.835Z,8.75
2022-12-04T00:20:53.678Z,10.35
2022-12-04T00:23:20.522Z,9.30
2022-12-04T00:25:50.328Z,9.75
2022-12-04T00:28:17.798Z,10.80
2022-12-04T00:30:45.324Z,10.55
2022-12-04T00:33:13.157Z,9.48
2022-12-04T00:35:40.109Z,10.23
2022-12-04T00:38:06.998Z,10.63
2022-12-04T00:40:33.923Z,9.57
2022-12-04T00:43:01.183Z,10.60
2022-12-04T00:45:28.068Z,9.52
2022-12-04T00:47:55.061Z,10.10
2022-12-04T00:50:22.164Z,10.10
2022-12-04T00:52:49.224Z,9.15
2022-12-04T00:55:16.237Z,9.70
2022-12-04T00:57:43.328Z,10.07
2022-12-04T01:00:10.895Z,10.55
2022-12-04T01:02:37.838Z,10.90
2022-12-04T01:05:05.060Z,11.05
2022-12-04T01:07:32.156Z,10.38
2022-12-04T01:09:59.110Z,11.00
2022-12-04T01:12:26.012Z,9.25
2022-12-04T01:14:53.024Z,10.68
2022-12-04T01:17:22.456Z,11.10
2022-12-04T01:19:49.550Z,10.55
2022-12-04T01:22:16.441Z,10.32
2022-12-04T01:24:43.385Z,10.02
2022-12-04T01:27:10.741Z,12.13
2022-12-04T01:29:37.910Z,11.60
2022-12-04T01:32:05.087Z,9.50
2022-12-04T01:34:32.335Z,9.63
2022-12-04T01:36:59.288Z,9.93
2022-12-04T01:39:29.480Z,10.75
2022-12-04T01:41:56.436Z,12.57
2022-12-04T01:44:24.947Z,9.73
2022-12-04T01:46:58.856Z,10.90
2022-12-04T01:49:29.497Z,10.32
2022-12-04T01:52:01.334Z,9.85
2022-12-04T01:54:30.607Z,12.10
2022-12-04T01:57:11.813Z,11.65
2022-12-04T01:59:59.405Z,9.70
2022-12-04T02:02:32.213Z,10.90
2022-12-04T02:05:00.690Z,10.30
2022-12-04T02:07:28.177Z,10.70
2022-12-04T02:09:56.394Z,12.10
2022-12-04T02:12:45.000Z,11.10
2022-12-04T02:15:20.832Z,12.13
2022-12-04T02:17:53.850Z,10.98
2022-12-04T02:20:33.149Z,11.50
2022-12-04T02:23:44.843Z,10.43
2022-12-04T02:26:33.870Z,10.57
2022-12-04T02:29:00.791Z,10.20
2022-12-04T02:31:48.045Z,11.88
2022-12-04T02:34:50.892Z,11.18
2022-12-04T02:37:20.018Z,10.00
2022-12-04T02:40:07.604Z,9.75
2022-12-04T02:42:39.836Z,10.45
2022-12-04T02:45:10.591Z,9.40
2022-12-04T02:47:38.192Z,10.27
2022-12-04T02:50:23.525Z,11.18
2022-12-04T02:53:06.009Z,9.18
2022-12-04T02:56:00.877Z,11.05
2022-12-04T02:58:42.249Z,11.88
2022-12-04T03:01:19.649Z,10.60
2022-12-04T03:04:14.436Z,9.82
2022-12-04T03:06:42.930Z,10.90
2022-12-04T03:09:17.699Z,11.80
2022-12-04T03:11:47.175Z,12.65
2022-12-04T03:14:19.270Z,10.93
2022-12-04T03:16:46.258Z,11.45
2022-12-04T03:19:28.499Z,11.60
2022-12-04T03:21:58.566Z,11.82
2022-12-04T03:24:25.442Z,12.88
2022-12-04T03:26:55.305Z,13.63
2022-12-04T03:29:36.008Z,12.27
2022-12-04T03:32:18.077Z,11.80
2022-12-04T03:34:51.987Z,12.30
2022-12-04T03:37:20.411Z,11.35
2022-12-04T03:39:57.854Z,11.45
2022-12-04T03:42:33.014Z,12.98
2022-12-04T03:45:10.966Z,13.13
2022-12-04T03:47:55.452Z,12.52
2022-12-04T03:50:38.399Z,13.68
2022-12-04T03:53:16.829Z,12.63
2022-12-04T03:55:57.067Z,13.10
2022-12-04T03:58:30.362Z,14.05
2022-12-04T04:00:57.299Z,13.32
2022-12-04T04:03:26.611Z,14.20
2022-12-04T04:05:56.003Z,12.85
2022-12-04T04:08:29.568Z,13.85
2022-12-04T04:13:55.678Z,13.00
2022-12-04T04:16:41.944Z,14.68
2022-12-04T04:19:27.556Z,13.40
2022-12-04T04:22:13.414Z,15.30
2022-12-04T04:24:46.804Z,13.65
2022-12-04T04:27:13.894Z,15.13
2022-12-04T04:29:40.956Z,14.65
2022-12-04T04:32:29.777Z,13.45
2022-12-04T04:34:58.873Z,13.30
2022-12-04T04:37:49.807Z,13.63
2022-12-04T04:40:27.231Z,15.25
2022-12-04T04:43:17.418Z,14.30
2022-12-04T04:45:46.878Z,15.48
2022-12-04T04:48:17.793Z,16.25
2022-12-04T04:50:44.799Z,14.27
2022-12-04T04:53:27.093Z,14.38
2022-12-04T04:55:53.985Z,14.48
2022-12-04T04:58:20.970Z,15.88
2022-12-04T05:01:02.328Z,14.30
2022-12-04T05:03:29.698Z,13.45
2022-12-04T05:05:56.594Z,14.82
2022-12-04T05:08:23.533Z,14.38
2022-12-04T05:10:50.480Z,16.00
2022-12-04T05:13:17.878Z,13.27
2022-12-04T05:15:44.917Z,14.48
2022-12-04T05:18:11.948Z,14.07
2022-12-04T05:20:39.447Z,15.43
2022-12-04T05:23:07.313Z,14.80
2022-12-04T05:25:34.200Z,13.80
2022-12-04T05:28:01.178Z,13.98
2022-12-04T05:30:28.173Z,14.55
2022-12-04T05:32:55.012Z,13.52
2022-12-04T05:35:21.921Z,14.40
2022-12-04T05:37:48.947Z,14.45
2022-12-04T05:40:15.888Z,14.25
2022-12-04T05:42:43.145Z,15.73
2022-12-04T05:45:10.262Z,15.85
2022-12-04T05:47:43.953Z,13.07
2022-12-04T05:52:38.554Z,14.18
2022-12-04T05:55:05.897Z,15.07
2022-12-04T05:57:32.744Z,16.13
2022-12-04T05:59:59.726Z,15.52
2022-12-04T06:02:26.648Z,15.02
2022-12-04T06:04:53.637Z,13.68
2022-12-04T06:07:20.622Z,14.40
2022-12-04T06:09:47.502Z,13.57
2022-12-04T06:12:14.386Z,15.23
2022-12-04T06:14:41.334Z,14.35
2022-12-04T06:17:08.239Z,15.07
2022-12-04T06:19:35.207Z,14.38
2022-12-04T06:22:02.130Z,15.48
2022-12-04T06:24:29.069Z,15.30
2022-12-04T06:27:26.877Z,15.43
2022-12-04T06:29:48.722Z,15.68
2022-12-04T06:32:21.150Z,15.52
2022-12-04T06:34:53.001Z,13.57
2022-12-04T06:37:24.092Z,14.48
2022-12-04T06:39:51.101Z,16.38
2022-12-04T06:42:17.953Z,16.05
2022-12-04T06:44:45.036Z,15.77
2022-12-04T06:47:11.917Z,15.77
2022-12-04T06:49:38.989Z,16.60
2022-12-04T06:52:05.869Z,15.98
2022-12-04T06:54:32.713Z,14.77
2022-12-04T06:56:59.592Z,15.57
2022-12-04T06:59:26.623Z,15.65
2022-12-04T07:01:53.489Z,15.25
2022-12-04T07:04:20.430Z,16.92
2022-12-04T07:06:47.417Z,18.02
2022-12-04T07:09:15.763Z,15.68
2022-12-04T07:11:43.171Z,15.57
2022-12-04T07:14:10.914Z,13.70
2022-12-04T07:16:41.065Z,16.52
2022-12-04T07:19:10.949Z,14.80
2022-12-04T07:21:37.905Z,15.88
2022-12-04T07:24:04.899Z,13.38
2022-12-04T07:26:31.867Z,15.90
2022-12-04T07:28:59.055Z,13.85
2022-12-04T07:31:26.705Z,13.68
2022-12-04T07:33:54.518Z,14.02
2022-12-04T07:36:21.949Z,14.65
2022-12-04T07:38:48.997Z,13.95
2022-12-04T07:41:16.067Z,14.15
2022-12-04T07:43:43.301Z,13.00
2022-12-04T07:46:18.492Z,13.65
2022-12-04T07:48:45.504Z,13.40
2022-12-04T07:51:15.579Z,11.98
2022-12-04T07:53:42.568Z,12.27
2022-12-04T07:56:12.847Z,13.80
2022-12-04T07:58:40.287Z,12.52
2022-12-04T08:01:14.167Z,12.15
2022-12-04T08:03:47.051Z,13.93
2022-12-04T08:08:41.955Z,11.57
2022-12-04T08:11:13.808Z,11.35
2022-12-04T08:13:40.654Z,12.82
2022-12-04T08:16:09.102Z,13.57
2022-12-04T08:18:36.408Z,12.88
2022-12-04T08:21:10.214Z,11.27
2022-12-04T08:23:38.457Z,13.98
2022-12-04T08:26:06.123Z,12.23
2022-12-04T08:28:33.048Z,12.20
2022-12-04T08:31:04.623Z,13.13
2022-12-04T08:33:31.971Z,11.98
2022-12-04T08:35:59.012Z,12.65
2022-12-04T08:38:26.071Z,12.23
2022-12-04T08:40:52.986Z,11.00
2022-12-04T08:43:20.197Z,11.88
2022-12-04T08:45:56.088Z,11.25
2022-12-04T08:48:23.112Z,10.02
2022-12-04T08:50:50.033Z,11.43
2022-12-04T08:53:17.178Z,10.65
2022-12-04T08:55:44.445Z,10.32
2022-12-04T08:58:11.303Z,11.65
2022-12-04T09:00:38.378Z,10.68
2022-12-04T09:03:08.121Z,9.88
2022-12-04T09:05:35.270Z,10.00
2022-12-04T09:08:02.175Z,9.13
2022-12-04T09:10:29.148Z,10.80
2022-12-04T09:12:56.187Z,9.82
2022-12-04T09:15:23.126Z,10.38
2022-12-04T09:17:50.057Z,9.10
2022-12-04T09:20:17.151Z,10.18
2022-12-04T09:23:02.876Z,8.57
2022-12-04T09:25:30.625Z,10.52
2022-12-04T09:27:57.508Z,9.55
2022-12-04T09:30:24.396Z,10.13
2022-12-04T09:32:51.342Z,9.98
2022-12-04T09:35:18.342Z,10.75
2022-12-04T09:37:45.199Z,9.52
2022-12-04T09:40:33.433Z,10.68
2022-12-04T09:43:32.053Z,9.30
2022-12-04T09:46:02.510Z,9.80
2022-12-04T09:48:33.661Z,10.40
2022-12-04T09:51:00.875Z,10.35
2022-12-04T09:53:43.993Z,11.43
2022-12-04T09:56:19.945Z,10.18
2022-12-04T09:58:47.911Z,11.25
2022-12-04T10:01:19.698Z,11.32
2022-12-04T10:03:46.744Z,11.50
2022-12-04T10:06:18.871Z,12.48
2022-12-04T10:08:46.994Z,10.90
2022-12-04T10:11:23.939Z,11.23
2022-12-04T10:14:04.496Z,10.40
2022-12-04T10:17:08.264Z,9.77
2022-12-04T10:19:40.337Z,10.38
2022-12-04T10:22:25.804Z,10.95
2022-12-04T10:24:56.754Z,11.60
2022-12-04T10:27:28.216Z,10.65
2022-12-04T10:30:22.051Z,9.80
2022-12-04T10:32:49.427Z,10.35
2022-12-04T10:35:27.477Z,10.90
2022-12-04T10:38:03.685Z,10.70
2022-12-04T10:40:35.421Z,11.43
2022-12-04T10:43:15.667Z,11.38
2022-12-04T10:45:42.958Z,11.43
2022-12-04T10:48:30.266Z,11.48
2022-12-04T10:50:57.123Z,11.60
2022-12-04T10:53:38.721Z,12.85
2022-12-04T10:56:23.789Z,12.13
2022-12-04T10:59:01.832Z,12.10
2022-12-04T11:01:33.487Z,11.95
2022-12-04T11:04:24.909Z,12.77
2022-12-04T11:07:08.501Z,12.30
2022-12-04T11:09:35.446Z,13.95
2022-12-04T11:12:09.073Z,12.07
2022-12-04T11:17:07.713Z,13.38
2022-12-04T11:19:36.357Z,12.80
2022-12-04T11:22:17.636Z,12.02
2022-12-04T11:24:50.791Z,11.88
2022-12-04T11:27:21.509Z,11.35
2022-12-04T11:29:48.525Z,11.43
2022-12-04T11:32:22.188Z,10.77
2022-12-04T11:37:27.913Z,9.98
2022-12-04T11:39:55.063Z,9.75
2022-12-04T11:42:27.262Z,10.38
2022-12-04T11:45:18.209Z,9.85
2022-12-04T11:47:53.402Z,8.85
2022-12-04T11:50:42.626Z,8.65
2022-12-04T11:53:19.351Z,9.63
2022-12-04T11:56:07.442Z,8.75
2022-12-04T11:58:46.712Z,8.95
2022-12-04T12:01:33.541Z,9.23
2022-12-04T12:04:09.278Z,10.00
2022-12-04T12:06:42.035Z,8.65
2022-12-04T12:09:38.808Z,8.33
2022-12-04T12:12:11.717Z,8.73
2022-12-04T12:14:57.428Z,9.23
2022-12-04T12:17:37.252Z,8.93
2022-12-04T12:20:10.935Z,9.77
2022-12-04T12:25:29.388Z,8.05
2022-12-04T12:28:09.689Z,8.93
2022-12-04T12:31:12.726Z,9.20
2022-12-04T12:33:54.992Z,8.70
2022-12-04T12:36:22.389Z,9.25
2022-12-04T12:38:57.326Z,9.45
2022-12-04T12:41:28.315Z,8.93
2022-12-04T12:44:04.457Z,8.98
2022-12-04T12:46:43.616Z,10.15
2022-12-04T12:49:30.766Z,9.00
2022-12-04T12:52:05.048Z,9.73
2022-12-04T12:55:04.750Z,9.48
2022-12-04T12:57:36.008Z,9.13
2022-12-04T13:00:23.446Z,10.15
2022-12-04T13:03:16.455Z,10.75
2022-12-04T13:05:45.183Z,12.30
2022-12-04T13:08:49.260Z,10.48
2022-12-04T13:11:21.525Z,11.30
2022-12-04T13:13:57.659Z,10.75
2022-12-04T13:16:25.328Z,10.52
2022-12-04T13:19:01.640Z,11.57
2022-12-04T13:21:31.308Z,12.38
2022-12-04T13:24:18.607Z,10.55
2022-12-04T13:26:52.707Z,10.38
2022-12-04T13:29:45.027Z,11.43
2022-12-04T13:32:25.611Z,9.70
2022-12-04T13:35:00.165Z,11.60
2022-12-04T13:37:39.807Z,11.20
2022-12-04T13:40:25.645Z,10.15
2022-12-04T13:42:52.844Z,11.10
2022-12-04T13:45:27.842Z,10.60
2022-12-04T13:47:59.129Z,9.98
2022-12-04T13:50:34.317Z,9.95
2022-12-04T13:53:01.433Z,10.52
2022-12-04T13:55:29.914Z,9.73
2022-12-04T13:57:59.829Z,9.52
2022-12-04T14:00:32.446Z,9.82
2022-12-04T14:03:20.875Z,9.07
2022-12-04T14:05:47.753Z,8.60
2022-12-04T14:08:25.112Z,9.48
2022-12-04T14:11:00.893Z,9.40
2022-12-04T14:13:29.713Z,8.40
2022-12-04T14:16:07.868Z,8.65
2022-12-04T14:18:34.863Z,8.10
2022-12-04T14:21:04.862Z,7.95
2022-12-04T14:23:39.635Z,8.07
2022-12-04T14:26:18.723Z,8.82
2022-12-04T14:28:45.769Z,8.00
2022-12-04T14:31:21.158Z,7.45
2022-12-04T14:34:04.086Z,7.97
2022-12-04T14:36:35.907Z,8.60
2022-12-04T14:39:06.179Z,8.73
2022-12-04T14:41:33.140Z,9.68
2022-12-04T14:44:00.070Z,9.18
2022-12-04T14:46:32.744Z,8.35
2022-12-04T14:49:02.557Z,9.57
2022-12-04T14:51:41.723Z,11.00
2022-12-04T14:54:23.627Z,11.93
2022-12-04T14:57:14.176Z,11.90
2022-12-04T14:59:51.754Z,10.13
2022-12-04T15:02:35.052Z,9.95
2022-12-04T15:05:02.367Z,10.23
2022-12-04T15:07:31.382Z,10.90
2022-12-04T15:10:18.169Z,10.48
2022-12-04T15:12:51.091Z,10.52
2022-12-04T15:15:26.480Z,11.55
2022-12-04T15:18:03.957Z,10.38
2022-12-04T15:20:42.100Z,10.57
2022-12-04T15:23:13.097Z,10.63
2022-12-04T15:25:47.857Z,10.23
2022-12-04T15:28:18.283Z,9.77
2022-12-04T15:30:46.837Z,11.88
2022-12-04T15:33:21.657Z,10.02
2022-12-04T15:35:57.945Z,10.82
2022-12-04T15:38:24.851Z,8.73
2022-12-04T15:40:55.598Z,7.38
2022-12-04T15:43:46.555Z,8.25
2022-12-04T15:46:37.665Z,7.43
2022-12-04T15:49:06.629Z,9.32
2022-12-04T15:51:33.557Z,7.30
2022-12-04T15:54:00.467Z,8.23
2022-12-04T15:56:28.837Z,7.22
2022-12-04T15:59:00.322Z,7.70
2022-12-04T16:01:27.232Z,6.90
2022-12-04T16:03:57.354Z,7.63
2022-12-04T16:06:29.314Z,7.90
2022-12-04T16:09:02.046Z,8.82
2022-12-04T16:11:36.715Z,7.97
2022-12-04T16:14:08.509Z,7.93
2022-12-04T16:16:36.787Z,7.55
2022-12-04T16:19:08.646Z,9.10
2022-12-04T16:21:35.987Z,14.50
2022-12-04T16:24:04.271Z,13.23
2022-12-04T16:26:32.519Z,9.32
2022-12-04T16:28:59.708Z,9.55
2022-12-04T16:31:26.897Z,11.55
2022-12-04T16:33:53.858Z,7.93
2022-12-04T16:36:20.785Z,11.18
2022-12-04T16:38:48.506Z,8.93
2022-12-04T16:41:18.933Z,8.32
2022-12-04T16:43:45.980Z,11.27
2022-12-04T16:46:14.568Z,9.10
2022-12-04T16:48:42.297Z,10.18
2022-12-04T16:51:15.562Z,10.50
2022-12-04T16:53:42.403Z,11.48
2022-12-04T16:56:09.454Z,8.70
2022-12-04T16:58:36.427Z,11.90
2022-12-04T17:01:03.651Z,9.95
2022-12-04T17:03:32.233Z,8.77
2022-12-04T17:06:00.348Z,9.25
2022-12-04T17:08:27.899Z,8.35
2022-12-04T17:10:54.799Z,9.18
2022-12-04T17:13:22.009Z,8.73
2022-12-04T17:15:49.074Z,8.70
2022-12-04T17:18:20.806Z,8.50
2022-12-04T17:20:49.604Z,8.57
2022-12-04T17:23:16.556Z,8.82
2022-12-04T17:25:43.386Z,8.98
2022-12-04T17:28:10.419Z,9.30
2022-12-04T17:30:37.371Z,9.40
2022-12-04T17:33:04.926Z,9.57
2022-12-04T17:35:31.967Z,8.27
2022-12-04T17:38:04.073Z,9.65
2022-12-04T17:40:33.157Z,8.90
2022-12-04T17:43:00.088Z,9.98
2022-12-04T17:45:27.304Z,9.00
2022-12-04T17:47:54.448Z,10.27
2022-12-04T17:50:21.384Z,10.23
2022-12-04T17:52:51.183Z,9.18
2022-12-04T17:55:18.947Z,8.30
2022-12-04T17:57:45.888Z,8.55
2022-12-04T18:00:13.040Z,9.02
2022-12-04T18:02:41.655Z,7.93
2022-12-04T18:05:09.457Z,9.23
2022-12-04T18:07:36.447Z,8.05
2022-12-04T18:10:03.436Z,10.50
2022-12-04T18:12:30.296Z,9.88
2022-12-04T18:14:57.172Z,9.68
2022-12-04T18:17:24.138Z,8.80
2022-12-04T18:19:52.008Z,9.65
2022-12-04T18:22:19.415Z,10.18
2022-12-04T18:24:46.322Z,9.80
2022-12-04T18:27:13.191Z,9.63
2022-12-04T18:29:41.384Z,9.90
2022-12-04T18:32:09.422Z,8.88
2022-12-04T18:34:37.843Z,10.15
2022-12-04T18:37:04.842Z,10.13
2022-12-04T18:39:31.714Z,9.27
2022-12-04T18:41:58.639Z,9.68
2022-12-04T18:44:26.111Z,10.73
2022-12-04T18:46:53.685Z,10.00
2022-12-04T18:49:24.021Z,9.85
2022-12-04T18:51:50.976Z,10.25
2022-12-04T18:54:21.166Z,10.30
2022-12-04T18:56:48.153Z,9.45
2022-12-04T18:59:19.787Z,10.88
2022-12-04T19:01:49.932Z,10.20
2022-12-04T19:04:20.637Z,10.82
2022-12-04T19:06:52.977Z,13.52
2022-12-04T19:09:47.113Z,9.70
2022-12-04T19:12:13.586Z,9.43
2022-12-04T19:14:40.943Z,12.27
2022-12-04T19:17:07.897Z,11.50
2022-12-04T19:19:34.857Z,11.40
2022-12-04T19:22:02.297Z,9.82
2022-12-04T19:24:29.155Z,10.13
2022-12-04T19:26:56.077Z,9.88
2022-12-04T19:29:23.369Z,9.30
2022-12-04T19:31:54.667Z,9.82
2022-12-04T19:34:24.662Z,11.18
2022-12-04T19:36:51.654Z,10.50
2022-12-04T19:39:18.704Z,9.82
2022-12-04T19:41:47.405Z,9.23
2022-12-04T19:44:46.806Z,9.82
2022-12-04T19:47:01.699Z,9.60
2022-12-04T19:49:28.735Z,10.60
2022-12-04T19:51:55.694Z,9.00
2022-12-04T19:54:23.829Z,9.80
2022-12-04T19:56:51.241Z,8.32
2022-12-04T19:59:18.623Z,9.25
2022-12-04T20:01:45.676Z,10.00
2022-12-04T20:04:13.073Z,8.82
2022-12-04T20:06:42.379Z,6.95
2022-12-04T20:09:11.339Z,7.80
2022-12-04T20:11:38.472Z,7.90
2022-12-04T20:14:05.782Z,7.80
2022-12-04T20:16:33.272Z,7.13
2022-12-04T20:19:01.477Z,7.63
2022-12-04T20:21:30.616Z,7.40
2022-12-04T20:23:58.546Z,8.50
2022-12-04T20:26:27.207Z,8.10
2022-12-04T20:28:55.481Z,7.68
2022-12-04T20:31:26.157Z,8.02
2022-12-04T20:33:54.014Z,8.23
2022-12-04T20:36:22.073Z,8.30
2022-12-04T20:38:49.826Z,7.00
2022-12-04T20:41:16.999Z,8.32
2022-12-04T20:43:44.367Z,8.57
2022-12-04T20:46:20.346Z,8.65
2022-12-04T20:48:50.747Z,8.82
2022-12-04T20:51:32.234Z,8.85
2022-12-04T20:53:59.505Z,7.63
2022-12-04T20:56:34.111Z,7.32
2022-12-04T20:59:03.259Z,7.88
2022-12-04T21:01:30.309Z,8.27
2022-12-04T21:03:58.480Z,8.07
2022-12-04T21:06:34.615Z,7.75
2022-12-04T21:09:05.996Z,9.20
2022-12-04T21:11:37.610Z,8.30
2022-12-04T21:14:25.119Z,8.35
2022-12-04T21:16:52.137Z,10.90
2022-12-04T21:19:20.549Z,8.63
2022-12-04T21:21:47.657Z,8.57
2022-12-04T21:24:15.622Z,8.98
2022-12-04T21:26:42.780Z,9.00
2022-12-04T21:29:09.909Z,8.57
2022-12-04T21:31:37.132Z,9.30
2022-12-04T21:34:05.692Z,8.65
2022-12-04T21:36:32.654Z,9.43
2022-12-04T21:38:59.678Z,10.02
2022-12-04T21:41:45.433Z,9.70
2022-12-04T21:44:17.295Z,9.50
2022-12-04T21:46:45.010Z,8.38
2022-12-04T21:49:12.620Z,10.90
2022-12-04T21:51:56.843Z,9.98
2022-12-04T21:54:25.721Z,9.43
2022-12-04T21:56:53.639Z,10.07
2022-12-04T21:59:20.624Z,9.00
2022-12-04T22:01:49.008Z,11.38
2022-12-04T22:04:16.225Z,10.75
2022-12-04T22:06:45.807Z,9.35
2022-12-04T22:09:16.236Z,9.85
2022-12-04T22:11:43.804Z,11.30
2022-12-04T22:14:11.454Z,9.52
2022-12-04T22:16:42.373Z,8.82
2022-12-04T22:19:09.644Z,10.07
2022-12-04T22:21:36.628Z,10.20
2022-12-04T22:24:04.365Z,11.02
2022-12-04T22:26:31.586Z,10.15
2022-12-04T22:28:58.668Z,9.93
2022-12-04T22:31:28.179Z,9.23
2022-12-04T22:33:55.929Z,10.65
2022-12-04T22:36:24.533Z,8.85
2022-12-04T22:41:38.619Z,9.77
2022-12-04T22:44:05.722Z,10.57
2022-12-04T22:46:32.768Z,11.68
2022-12-04T22:49:01.232Z,10.30
2022-12-04T22:51:28.432Z,10.18
2022-12-04T22:53:56.680Z,9.65
2022-12-04T22:56:24.478Z,10.60
2022-12-04T22:58:51.736Z,10.68
2022-12-04T23:01:21.403Z,10.43
2022-12-04T23:03:48.554Z,9.45
2022-12-04T23:06:15.762Z,9.98
2022-12-04T23:08:43.061Z,11.40
2022-12-04T23:11:12.326Z,10.60
2022-12-04T23:13:39.936Z,10.07
2022-12-04T23:16:09.776Z,11.07
2022-12-04T23:18:37.437Z,13.75
2022-12-04T23:21:09.455Z,11.73
2022-12-04T23:23:37.227Z,11.52
2022-12-04T23:26:05.381Z,12.40
2022-12-04T23:28:32.244Z,11.85
2022-12-04T23:30:59.388Z,11.25
2022-12-04T23:33:26.402Z,11.60
2022-12-04T23:35:56.811Z,13.52
2022-12-04T23:38:24.473Z,10.18
2022-12-04T23:41:07.503Z,11.07
2022-12-04T23:43:34.928Z,9.77
2022-12-04T23:46:07.337Z,11.27
2022-12-04T23:48:37.626Z,11.98
2022-12-04T23:51:04.668Z,11.00
2022-12-04T23:53:31.611Z,12.60
2022-12-04T23:56:02.844Z,12.18
2022-12-04T23:58:29.857Z,11.38
